Time;durP1;ratioP1;P1;durP2;ratioP2;P2;SDS_P1;SDS_P2;PMS_P1;PMS_P2;Temp;Humidity;BMP_temperature;BMP_pressure;BME280_temperature;BME280_humidity;BME280_pressure;Samples;Min_cycle;Max_cycle;Signal;HPM_P1;HPM_P2
2023/12/06 00:02:09;;;;;;;8.98;5.57;;;4.40;58.70;;;;;;5026687;28;21066;-75
2023/12/06 00:04:35;;;;;;;9.02;6.10;;;4.40;58.60;;;;;;5009365;28;20033;-78
2023/12/06 00:07:01;;;;;;;10.50;6.60;;;4.50;58.60;;;;;;5026976;28;20041;-79
2023/12/06 00:09:27;;;;;;;10.05;6.47;;;4.40;58.40;;;;;;5042157;28;20403;-77
2023/12/06 00:11:53;;;;;;;10.70;6.60;;;4.50;58.50;;;;;;5025177;28;20030;-76
2023/12/06 00:14:19;;;;;;;9.18;6.05;;;4.40;58.50;;;;;;5027451;28;20086;-77
2023/12/06 00:16:45;;;;;;;10.48;5.90;;;4.40;58.40;;;;;;5026721;28;20411;-76
2023/12/06 00:19:11;;;;;;;9.15;6.20;;;4.40;58.40;;;;;;5025775;28;20045;-79
2023/12/06 00:21:37;;;;;;;9.50;6.30;;;4.40;58.40;;;;;;5027673;28;20037;-78
2023/12/06 00:24:04;;;;;;;10.00;6.75;;;4.40;58.20;;;;;;5025849;28;20045;-79
2023/12/06 00:26:30;;;;;;;10.25;6.25;;;4.40;58.30;;;;;;5026850;28;20033;-79
2023/12/06 00:28:56;;;;;;;10.10;6.47;;;4.40;58.20;;;;;;5026674;28;20536;-78
2023/12/06 00:31:22;;;;;;;8.40;5.75;;;4.40;58.20;;;;;;5024267;28;20036;-78
2023/12/06 00:33:48;;;;;;;9.55;6.13;;;4.30;58.10;;;;;;5029087;28;20034;-76
2023/12/06 00:36:14;;;;;;;11.32;6.55;;;4.30;58.10;;;;;;5025965;28;20479;-78
2023/12/06 00:38:40;;;;;;;9.73;6.65;;;4.40;58.10;;;;;;5008516;28;20075;-77
2023/12/06 00:41:06;;;;;;;14.25;6.57;;;4.30;58.10;;;;;;5025758;28;20514;-76
2023/12/06 00:43:32;;;;;;;10.27;6.70;;;4.30;58.10;;;;;;5025641;28;20038;-76
2023/12/06 00:45:58;;;;;;;11.63;6.03;;;4.30;58.20;;;;;;5024863;28;20037;-78
2023/12/06 00:48:24;;;;;;;13.55;6.40;;;4.30;58.10;;;;;;5032955;28;20587;-78
2023/12/06 00:50:50;;;;;;;8.57;5.93;;;4.40;58.30;;;;;;5026059;28;20036;-77
2023/12/06 00:53:16;;;;;;;9.05;5.60;;;4.40;58.30;;;;;;5025789;28;20033;-78
2023/12/06 00:55:42;;;;;;;9.00;6.28;;;4.40;58.20;;;;;;5023708;28;20538;-77
2023/12/06 00:58:08;;;;;;;11.60;6.78;;;4.30;58.10;;;;;;5025507;28;20041;-78
2023/12/06 01:00:34;;;;;;;9.40;6.13;;;4.30;58.10;;;;;;5024504;28;20034;-78
2023/12/06 01:03:00;;;;;;;10.18;6.15;;;4.40;58.10;;;;;;5026006;28;20029;-75
2023/12/06 01:05:26;;;;;;;9.88;6.47;;;4.40;58.00;;;;;;5026209;28;20037;-74
2023/12/06 01:07:52;;;;;;;11.98;7.43;;;4.40;57.80;;;;;;5024967;28;20041;-76
2023/12/06 01:10:18;;;;;;;10.65;6.40;;;4.30;57.70;;;;;;5025391;28;20037;-77
2023/12/06 01:12:44;;;;;;;9.70;6.75;;;4.40;57.70;;;;;;5024285;28;20523;-77
2023/12/06 01:15:10;;;;;;;10.88;6.40;;;4.30;57.60;;;;;;5025062;28;20169;-75
2023/12/06 01:17:36;;;;;;;10.55;6.43;;;4.30;57.60;;;;;;5025774;28;20038;-77
2023/12/06 01:20:03;;;;;;;10.98;6.53;;;4.30;57.60;;;;;;5024171;28;20104;-76
2023/12/06 01:22:29;;;;;;;10.52;6.97;;;4.30;57.40;;;;;;5041291;28;20057;-76
2023/12/06 01:24:58;;;;;;;11.88;6.03;;;4.30;57.50;;;;;;5027643;28;20041;-77
2023/12/06 01:27:24;;;;;;;10.00;6.10;;;4.30;57.50;;;;;;5027544;28;20041;-77
2023/12/06 01:29:50;;;;;;;9.32;6.10;;;4.30;57.40;;;;;;5026556;28;20029;-77
2023/12/06 01:32:16;;;;;;;8.98;6.28;;;4.30;57.30;;;;;;5026096;28;20083;-76
2023/12/06 01:34:42;;;;;;;10.55;6.70;;;4.30;57.30;;;;;;5025636;28;20770;-76
2023/12/06 01:37:08;;;;;;;10.50;6.03;;;4.30;57.30;;;;;;5025409;28;20038;-76
2023/12/06 01:39:34;;;;;;;11.27;6.78;;;4.30;57.30;;;;;;5025561;28;20053;-76
2023/12/06 01:42:00;;;;;;;12.02;6.95;;;4.30;57.30;;;;;;5025238;28;20480;-76
2023/12/06 01:44:26;;;;;;;12.50;6.65;;;4.30;57.30;;;;;;5025067;28;20037;-76
2023/12/06 01:46:53;;;;;;;11.13;6.88;;;4.30;57.40;;;;;;4991166;28;20033;-76
2023/12/06 01:49:19;;;;;;;13.38;7.28;;;4.30;57.40;;;;;;5025232;28;20036;-75
2023/12/06 01:51:46;;;;;;;10.68;7.20;;;4.30;57.50;;;;;;5028487;28;20473;-75
2023/12/06 01:54:12;;;;;;;12.90;7.88;;;4.30;57.50;;;;;;5026486;28;20065;-76
2023/12/06 01:56:38;;;;;;;12.20;7.72;;;4.30;57.50;;;;;;5028474;28;20084;-76
2023/12/06 01:59:07;;;;;;;14.07;7.38;;;4.30;57.50;;;;;;5028417;28;20133;-76
2023/12/06 02:01:34;;;;;;;12.00;7.30;;;4.30;57.40;;;;;;5028031;28;20041;-75
2023/12/06 02:04:00;;;;;;;10.98;6.55;;;4.30;57.30;;;;;;5029045;28;20125;-75
2023/12/06 02:06:26;;;;;;;10.60;6.63;;;4.30;57.40;;;;;;5028282;28;20033;-74
2023/12/06 02:08:52;;;;;;;11.55;7.30;;;4.30;57.30;;;;;;5028445;28;20053;-75
2023/12/06 02:11:18;;;;;;;11.57;7.35;;;4.30;57.10;;;;;;5026707;28;20037;-77
2023/12/06 02:13:45;;;;;;;10.55;6.40;;;4.30;57.10;;;;;;5028984;28;20099;-76
2023/12/06 02:16:11;;;;;;;12.18;7.10;;;4.30;57.10;;;;;;5028404;28;20046;-76
2023/12/06 02:18:38;;;;;;;12.05;7.40;;;4.30;57.00;;;;;;5028503;28;20037;-76
2023/12/06 02:21:05;;;;;;;12.82;7.35;;;4.30;57.00;;;;;;5026343;28;20048;-74
2023/12/06 02:23:39;;;;;;;9.98;7.00;;;4.30;57.00;;;;;;5026284;28;20092;-76
2023/12/06 02:26:05;;;;;;;12.98;8.02;;;4.30;57.00;;;;;;5025982;28;20034;-75
2023/12/06 02:28:31;;;;;;;12.48;7.18;;;4.30;57.00;;;;;;5028175;28;20037;-77
2023/12/06 02:30:57;;;;;;;11.43;7.50;;;4.30;57.00;;;;;;5028544;28;21832;-74
2023/12/06 02:33:26;;;;;;;13.38;7.43;;;4.30;57.00;;;;;;5028453;28;20470;-75
2023/12/06 02:35:57;;;;;;;12.57;8.07;;;4.30;57.00;;;;;;5026277;28;20030;-75
2023/12/06 02:38:23;;;;;;;12.10;8.20;;;4.30;57.00;;;;;;5027653;28;20121;-76
2023/12/06 02:40:50;;;;;;;12.93;8.27;;;4.30;57.00;;;;;;5009710;28;20072;-76
2023/12/06 02:43:17;;;;;;;13.82;8.82;;;4.30;56.90;;;;;;5027165;28;20030;-76
2023/12/06 02:45:43;;;;;;;14.52;7.50;;;4.30;56.90;;;;;;5026205;28;20128;-76
2023/12/06 02:48:10;;;;;;;12.85;7.88;;;4.30;56.80;;;;;;5025056;28;20037;-78
2023/12/06 02:50:36;;;;;;;13.20;8.13;;;4.30;56.80;;;;;;5027485;28;20432;-76
2023/12/06 02:53:02;;;;;;;14.50;8.45;;;4.30;56.70;;;;;;5026849;28;20033;-76
2023/12/06 02:55:28;;;;;;;12.95;8.02;;;4.30;56.70;;;;;;5026249;28;20495;-76
2023/12/06 02:57:54;;;;;;;12.32;7.90;;;4.30;56.80;;;;;;5028279;28;20041;-76
2023/12/06 03:00:20;;;;;;;14.50;8.40;;;4.30;56.70;;;;;;5026963;28;20034;-76
2023/12/06 03:02:46;;;;;;;14.48;8.95;;;4.30;56.60;;;;;;5026190;28;20030;-76
2023/12/06 03:05:12;;;;;;;13.82;8.70;;;4.30;56.70;;;;;;5028704;28;20040;-76
2023/12/06 03:07:38;;;;;;;14.25;8.75;;;4.30;56.60;;;;;;5027790;28;20037;-75
2023/12/06 03:10:05;;;;;;;15.48;8.63;;;4.30;56.60;;;;;;5029069;28;20037;-75
2023/12/06 03:12:31;;;;;;;15.95;10.02;;;4.30;56.50;;;;;;5028910;28;20089;-76
2023/12/06 03:14:57;;;;;;;15.27;9.23;;;4.30;56.60;;;;;;5043077;28;20121;-76
2023/12/06 03:17:23;;;;;;;14.10;9.13;;;4.30;56.50;;;;;;5029017;28;20425;-76
2023/12/06 03:19:49;;;;;;;13.98;8.63;;;4.30;56.50;;;;;;5026624;28;20033;-76
2023/12/06 03:22:15;;;;;;;15.38;9.30;;;4.30;56.60;;;;;;5026585;28;20047;-76
2023/12/06 03:24:41;;;;;;;14.50;9.20;;;4.30;56.60;;;;;;5026282;28;20025;-75
2023/12/06 03:27:07;;;;;;;14.85;10.00;;;4.30;56.50;;;;;;5024024;28;20040;-77
2023/12/06 03:29:33;;;;;;;16.00;8.85;;;4.30;56.60;;;;;;5026393;28;20502;-75
2023/12/06 03:31:59;;;;;;;14.35;9.65;;;4.30;56.60;;;;;;5025960;28;20044;-76
2023/12/06 03:34:25;;;;;;;13.23;8.45;;;4.30;56.50;;;;;;5025070;28;20755;-74
2023/12/06 03:36:51;;;;;;;14.95;9.07;;;4.40;56.50;;;;;;5026198;28;20037;-76
2023/12/06 03:39:17;;;;;;;14.13;9.10;;;4.30;56.50;;;;;;5026095;28;20037;-75
2023/12/06 03:41:43;;;;;;;15.20;9.20;;;4.30;56.40;;;;;;5025695;28;20545;-74
2023/12/06 03:44:09;;;;;;;14.85;9.23;;;4.30;56.40;;;;;;5024265;28;20349;-75
2023/12/06 03:46:35;;;;;;;14.80;9.23;;;4.40;56.50;;;;;;5025680;28;20037;-77
2023/12/06 03:49:01;;;;;;;16.70;9.65;;;4.40;56.40;;;;;;5025720;28;20037;-77
2023/12/06 03:51:28;;;;;;;16.20;9.77;;;4.40;56.50;;;;;;5025307;28;20033;-77
2023/12/06 03:53:55;;;;;;;15.90;9.48;;;4.40;56.50;;;;;;5023328;28;20083;-77
2023/12/06 03:56:22;;;;;;;14.85;9.65;;;4.40;56.50;;;;;;5011552;28;20033;-77
2023/12/06 03:58:48;;;;;;;15.00;9.38;;;4.40;56.50;;;;;;5025591;28;21490;-78
2023/12/06 04:01:14;;;;;;;14.02;9.00;;;4.40;56.50;;;;;;5025999;28;20084;-77
2023/12/06 04:03:43;;;;;;;15.18;9.70;;;4.30;56.50;;;;;;5012889;28;20068;-78
2023/12/06 04:06:09;;;;;;;15.50;10.07;;;4.40;56.50;;;;;;5022879;28;20033;-77
2023/12/06 04:08:34;;;;;;;15.80;9.68;;;4.40;56.50;;;;;;5024088;28;20044;-79
2023/12/06 04:11:01;;;;;;;17.20;9.43;;;4.40;56.50;;;;;;5022736;28;20033;-80
2023/12/06 04:13:27;;;;;;;14.63;9.45;;;4.40;56.50;;;;;;5020435;28;20033;-78
2023/12/06 04:15:53;;;;;;;13.60;8.45;;;4.40;56.50;;;;;;5021681;28;20045;-77
2023/12/06 04:18:19;;;;;;;15.35;9.40;;;4.40;56.30;;;;;;5023183;28;20132;-80
2023/12/06 04:20:45;;;;;;;16.42;9.88;;;4.40;56.30;;;;;;5022622;28;20117;-76
2023/12/06 04:23:11;;;;;;;15.73;9.05;;;4.40;56.20;;;;;;5005096;28;20373;-78
2023/12/06 04:25:38;;;;;;;14.02;9.20;;;4.40;56.10;;;;;;5022118;28;20119;-78
2023/12/06 04:28:04;;;;;;;16.63;9.82;;;4.40;56.10;;;;;;5022286;28;20048;-79
2023/12/06 04:30:30;;;;;;;14.57;9.30;;;4.40;56.10;;;;;;5022111;28;20034;-79
2023/12/06 04:32:56;;;;;;;14.20;9.13;;;4.40;55.90;;;;;;5022242;28;20048;-79
2023/12/06 04:35:22;;;;;;;15.07;8.52;;;4.40;55.90;;;;;;5020727;28;20033;-78
2023/12/06 04:37:48;;;;;;;15.18;9.27;;;4.40;55.90;;;;;;5022346;28;20040;-89
2023/12/06 04:40:14;;;;;;;15.20;8.93;;;4.40;55.80;;;;;;5023685;28;20041;-82
2023/12/06 04:42:40;;;;;;;15.13;9.25;;;4.40;55.80;;;;;;5031642;28;20136;-75
2023/12/06 04:45:06;;;;;;;14.65;8.85;;;4.50;55.90;;;;;;5024180;28;20148;-74
2023/12/06 04:47:32;;;;;;;15.13;8.95;;;4.50;56.00;;;;;;5025838;28;20365;-75
2023/12/06 04:49:58;;;;;;;14.50;8.65;;;4.50;55.90;;;;;;5024836;28;20042;-75
2023/12/06 04:52:24;;;;;;;15.32;8.93;;;4.50;55.80;;;;;;5024391;28;20037;-75
2023/12/06 04:54:53;;;;;;;15.35;8.65;;;4.50;55.70;;;;;;5038373;28;20030;-75
2023/12/06 04:57:19;;;;;;;16.38;9.57;;;4.40;55.70;;;;;;5023785;28;20045;-76
2023/12/06 04:59:45;;;;;;;13.57;8.98;;;4.40;56.20;;;;;;5023926;28;20041;-76
2023/12/06 05:02:11;;;;;;;15.15;9.57;;;4.40;55.70;;;;;;5024193;28;20041;-77
2023/12/06 05:04:37;;;;;;;14.90;8.80;;;4.40;55.70;;;;;;5022922;28;20034;-76
2023/12/06 05:07:03;;;;;;;15.90;9.27;;;4.40;55.90;;;;;;5021570;28;20741;-75
2023/12/06 05:09:29;;;;;;;13.63;8.75;;;4.40;56.00;;;;;;5023452;28;20056;-74
2023/12/06 05:11:55;;;;;;;13.85;8.80;;;4.40;56.10;;;;;;5023948;28;20029;-75
2023/12/06 05:14:22;;;;;;;15.15;8.52;;;4.40;56.20;;;;;;5023503;28;20511;-74
2023/12/06 05:16:48;;;;;;;13.77;8.55;;;4.50;56.30;;;;;;5024450;28;20065;-74
2023/12/06 05:19:13;;;;;;;15.65;9.27;;;4.50;56.30;;;;;;5031093;28;20376;-75
2023/12/06 05:21:39;;;;;;;14.48;9.00;;;4.50;56.20;;;;;;5024324;28;20083;-76
2023/12/06 05:24:06;;;;;;;15.07;9.10;;;4.50;56.20;;;;;;5024488;28;20038;-75
2023/12/06 05:26:32;;;;;;;13.73;8.82;;;4.50;56.00;;;;;;5043804;28;20042;-75
2023/12/06 05:29:01;;;;;;;16.70;10.02;;;4.50;56.00;;;;;;5028869;28;20041;-75
2023/12/06 05:31:27;;;;;;;13.75;9.02;;;4.50;55.90;;;;;;5044708;28;20186;-75
2023/12/06 05:33:53;;;;;;;16.17;9.80;;;4.50;55.80;;;;;;5036057;28;20064;-76
2023/12/06 05:36:19;;;;;;;17.75;9.88;;;4.50;55.60;;;;;;5017842;28;20073;-76
2023/12/06 05:38:45;;;;;;;15.98;9.68;;;4.50;55.50;;;;;;5028584;28;20930;-73
2023/12/06 05:41:11;;;;;;;15.48;9.73;;;4.50;55.50;;;;;;5028402;28;20436;-75
2023/12/06 05:43:37;;;;;;;13.07;8.55;;;4.50;55.40;;;;;;5028458;28;20072;-76
2023/12/06 05:46:03;;;;;;;13.45;8.70;;;4.50;55.30;;;;;;5028445;28;20041;-74
2023/12/06 05:48:29;;;;;;;15.32;8.88;;;4.50;55.20;;;;;;5027774;28;20045;-74
2023/12/06 05:50:55;;;;;;;14.85;8.82;;;4.50;55.20;;;;;;5028083;28;20025;-75
2023/12/06 05:53:22;;;;;;;15.98;9.73;;;4.50;55.10;;;;;;5028526;28;20045;-75
2023/12/06 05:55:48;;;;;;;14.77;8.80;;;4.50;55.10;;;;;;5027822;28;20042;-75
2023/12/06 05:58:14;;;;;;;15.00;9.48;;;4.50;55.10;;;;;;5026256;28;20045;-74
2023/12/06 06:00:40;;;;;;;12.27;8.15;;;4.50;57.50;;;;;;5027769;28;20034;-76
2023/12/06 06:03:06;;;;;;;16.17;7.75;;;4.70;65.50;;;;;;5027757;28;20038;-76
2023/12/06 06:05:33;;;;;;;12.20;7.25;;;4.80;69.30;;;;;;5027392;28;20025;-78
2023/12/06 06:07:59;;;;;;;12.82;7.50;;;5.00;71.80;;;;;;5025155;28;20106;-77
2023/12/06 06:10:26;;;;;;;13.82;7.20;;;5.10;73.50;;;;;;5028230;28;20112;-74
2023/12/06 06:12:52;;;;;;;9.75;6.53;;;5.30;74.80;;;;;;5028566;28;20040;-78
2023/12/06 06:15:18;;;;;;;12.32;7.07;;;5.40;75.20;;;;;;5027850;28;20041;-79
2023/12/06 06:17:44;;;;;;;10.05;7.65;;;5.60;75.40;;;;;;5027265;28;20662;-75
2023/12/06 06:20:10;;;;;;;11.18;7.50;;;5.60;74.70;;;;;;5025625;28;20029;-77
2023/12/06 06:22:36;;;;;;;12.77;7.70;;;5.70;73.70;;;;;;5027011;28;20029;-78
2023/12/06 06:25:02;;;;;;;11.75;7.70;;;5.80;73.00;;;;;;5027680;28;20029;-81
2023/12/06 06:27:28;;;;;;;14.13;8.10;;;5.80;72.40;;;;;;5009826;28;20029;-80
2023/12/06 06:29:54;;;;;;;15.50;8.00;;;5.80;72.00;;;;;;5009390;28;20525;-80
2023/12/06 06:32:20;;;;;;;14.93;9.07;;;5.90;71.60;;;;;;5025174;28;20037;-82
2023/12/06 06:34:46;;;;;;;12.75;8.20;;;5.90;71.20;;;;;;5023957;28;20140;-77
2023/12/06 06:37:13;;;;;;;13.60;8.50;;;6.00;71.10;;;;;;5019464;28;20095;-80
2023/12/06 06:39:39;;;;;;;12.82;8.10;;;6.00;70.80;;;;;;5024282;28;20044;-82
2023/12/06 06:42:06;;;;;;;13.18;8.52;;;6.00;70.60;;;;;;5024104;28;20090;-77
2023/12/06 06:44:32;;;;;;;13.75;8.68;;;6.10;70.50;;;;;;5040903;28;20033;-81
2023/12/06 06:46:59;;;;;;;14.43;8.68;;;6.10;70.40;;;;;;5023821;28;20748;-79
2023/12/06 06:49:26;;;;;;;13.20;8.60;;;6.10;70.20;;;;;;5025514;28;20069;-75
2023/12/06 06:51:52;;;;;;;14.10;9.27;;;6.20;70.30;;;;;;5026319;28;20026;-80
2023/12/06 06:54:18;;;;;;;14.13;8.43;;;6.10;70.00;;;;;;5025058;28;20133;-82
2023/12/06 06:56:44;;;;;;;12.43;8.40;;;6.20;70.00;;;;;;5023933;28;20072;-77
2023/12/06 06:59:11;;;;;;;14.25;9.15;;;6.20;70.00;;;;;;5023782;28;20120;-76
2023/12/06 07:01:37;;;;;;;16.13;9.35;;;6.20;70.00;;;;;;5024325;28;20096;-80
2023/12/06 07:04:04;;;;;;;14.43;9.00;;;6.20;69.90;;;;;;5025041;28;20025;-79
2023/12/06 07:06:30;;;;;;;12.70;8.75;;;6.30;70.00;;;;;;5023002;28;20399;-77
2023/12/06 07:08:56;;;;;;;11.65;8.23;;;6.30;69.90;;;;;;5023671;28;20029;-81
2023/12/06 07:11:22;;;;;;;13.57;8.63;;;6.30;69.90;;;;;;5025159;28;20377;-78
2023/12/06 07:13:49;;;;;;;14.38;8.93;;;6.30;69.60;;;;;;5025224;28;20030;-84
2023/12/06 07:16:16;;;;;;;13.90;8.30;;;6.40;69.50;;;;;;5025370;28;20037;-88
2023/12/06 07:18:44;;;;;;;12.60;8.45;;;6.40;69.50;;;;;;5026382;28;20025;-86
2023/12/06 07:21:11;;;;;;;12.68;8.20;;;6.40;69.30;;;;;;5024783;28;20037;-81
2023/12/06 07:23:39;;;;;;;12.35;8.13;;;6.40;69.20;;;;;;5009549;28;20030;-84
2023/12/06 07:26:07;;;;;;;14.10;8.32;;;6.40;69.10;;;;;;5024956;28;20041;-84
2023/12/06 07:28:33;;;;;;;13.10;8.48;;;6.50;69.10;;;;;;5025091;28;20034;-86
2023/12/06 07:31:00;;;;;;;11.23;7.93;;;6.40;68.90;;;;;;5032502;28;20033;-84
2023/12/06 07:33:26;;;;;;;14.10;8.32;;;6.50;68.90;;;;;;5025859;28;20556;-81
2023/12/06 07:35:53;;;;;;;12.77;8.88;;;6.50;68.80;;;;;;5025013;28;20098;-84
2023/12/06 07:38:20;;;;;;;14.25;8.57;;;6.50;68.70;;;;;;5007754;28;20033;-82
2023/12/06 07:40:46;;;;;;;11.63;8.32;;;6.50;68.60;;;;;;5031799;28;20168;-82
2023/12/06 07:43:12;;;;;;;12.27;8.15;;;6.50;68.60;;;;;;5025673;28;20499;-84
2023/12/06 07:45:38;;;;;;;12.57;8.48;;;6.50;68.50;;;;;;5024339;28;20385;-85
2023/12/06 07:48:04;;;;;;;13.35;7.88;;;6.50;69.10;;;;;;5025636;28;20049;-79
2023/12/06 07:50:30;;;;;;;12.50;8.07;;;6.50;68.50;;;;;;5022186;28;20094;-84
2023/12/06 07:52:56;;;;;;;13.55;8.77;;;6.50;68.40;;;;;;5026084;28;20515;-83
2023/12/06 07:55:22;;;;;;;13.32;9.30;;;6.50;68.50;;;;;;5024671;28;20076;-85
2023/12/06 07:57:48;;;;;;;12.55;8.52;;;6.50;68.50;;;;;;5022847;28;20041;-80
2023/12/06 08:00:15;;;;;;;14.52;8.55;;;6.50;68.50;;;;;;5024597;28;20037;-78
2023/12/06 08:02:42;;;;;;;12.13;8.55;;;6.50;68.50;;;;;;5026109;28;20495;-83
2023/12/06 08:05:10;;;;;;;12.10;7.97;;;6.50;68.40;;;;;;5025585;28;20030;-82
2023/12/06 08:07:37;;;;;;;13.63;8.63;;;6.50;68.30;;;;;;5024541;28;20160;-81
2023/12/06 08:10:12;;;;;;;13.52;8.65;;;6.50;68.30;;;;;;4997295;28;20037;-79
2023/12/06 08:12:38;;;;;;;13.67;8.53;;;6.50;68.40;;;;;;5031237;28;20033;-85
2023/12/06 08:15:08;;;;;;;12.32;8.57;;;6.50;68.50;;;;;;5023579;28;20077;-80
2023/12/06 08:17:35;;;;;;;13.45;8.30;;;6.60;68.50;;;;;;5023680;28;20099;-87
2023/12/06 08:20:05;;;;;;;14.10;8.57;;;6.60;68.50;;;;;;5022790;28;20041;-86
2023/12/06 08:22:31;;;;;;;13.93;8.77;;;6.60;68.70;;;;;;5021661;28;20025;-83
2023/12/06 08:24:57;;;;;;;14.05;8.15;;;6.60;68.60;;;;;;5022748;28;20044;-87
2023/12/06 08:27:28;;;;;;;13.52;8.63;;;6.60;68.70;;;;;;5023849;28;20037;-85
2023/12/06 08:29:55;;;;;;;12.73;8.93;;;6.60;68.80;;;;;;5004930;28;20503;-81
2023/12/06 08:32:22;;;;;;;13.88;9.18;;;6.60;68.70;;;;;;5029694;28;20036;-87
2023/12/06 08:34:49;;;;;;;13.55;9.05;;;6.60;68.70;;;;;;5035607;28;20044;-83
2023/12/06 08:37:15;;;;;;;14.25;9.05;;;6.60;68.80;;;;;;4990223;28;20038;-85
2023/12/06 08:39:41;;;;;;;15.60;8.82;;;6.60;68.60;;;;;;5030408;28;20037;-85
2023/12/06 08:42:08;;;;;;;14.20;8.65;;;6.60;68.50;;;;;;5022371;28;20187;-83
2023/12/06 08:44:34;;;;;;;14.38;8.90;;;6.60;68.50;;;;;;5024971;28;20063;-83
2023/12/06 08:47:02;;;;;;;12.32;8.63;;;6.60;68.70;;;;;;5022610;28;20049;-88
2023/12/06 08:49:28;;;;;;;15.20;8.82;;;6.60;68.50;;;;;;5023036;28;20029;-83
2023/12/06 08:51:55;;;;;;;13.23;8.32;;;6.60;68.60;;;;;;5023421;28;20083;-79
2023/12/06 08:54:21;;;;;;;13.32;8.73;;;6.60;68.80;;;;;;5023931;28;20056;-85
2023/12/06 08:56:47;;;;;;;14.63;9.60;;;6.60;68.80;;;;;;5022525;28;20769;-82
2023/12/06 08:59:13;;;;;;;14.63;9.07;;;6.60;68.70;;;;;;5021784;28;20041;-82
2023/12/06 09:01:39;;;;;;;14.00;8.98;;;6.60;68.60;;;;;;5025738;28;20033;-83
2023/12/06 09:04:05;;;;;;;12.15;8.20;;;6.60;68.60;;;;;;5010018;28;20053;-86
2023/12/06 09:06:31;;;;;;;13.95;8.93;;;6.60;68.80;;;;;;5026451;28;20068;-84
2023/12/06 09:08:57;;;;;;;14.40;8.63;;;6.60;68.70;;;;;;5026293;28;20033;-80
2023/12/06 09:11:23;;;;;;;13.95;9.55;;;6.70;68.80;;;;;;5027814;28;20040;-80
2023/12/06 09:13:49;;;;;;;13.88;8.80;;;6.70;68.70;;;;;;5027273;28;20381;-86
2023/12/06 09:16:15;;;;;;;14.82;9.68;;;6.70;68.70;;;;;;5025005;28;20488;-85
2023/12/06 09:18:41;;;;;;;14.65;9.55;;;6.70;68.80;;;;;;5026955;28;20030;-83
2023/12/06 09:21:07;;;;;;;14.25;9.25;;;6.70;68.70;;;;;;5009160;28;20067;-79
2023/12/06 09:23:33;;;;;;;14.57;9.48;;;6.70;68.70;;;;;;5029372;28;20037;-83
2023/12/06 09:26:00;;;;;;;15.82;9.18;;;6.70;68.70;;;;;;5026343;28;20483;-83
2023/12/06 09:28:26;;;;;;;15.40;9.30;;;6.80;68.70;;;;;;5025238;28;20763;-84
2023/12/06 09:30:52;;;;;;;15.35;9.88;;;6.70;69.20;;;;;;5028041;28;20045;-84
2023/12/06 09:33:20;;;;;;;14.50;9.95;;;6.80;68.50;;;;;;5027091;28;21146;-87
2023/12/06 09:35:45;;;;;;;15.00;9.27;;;6.70;68.30;;;;;;5025603;28;20192;-87
2023/12/06 09:38:12;;;;;;;13.57;9.38;;;6.70;68.40;;;;;;5025670;28;20186;-81
2023/12/06 09:40:38;;;;;;;15.55;9.50;;;6.70;68.40;;;;;;5026171;28;20037;-83
2023/12/06 09:43:04;;;;;;;15.45;9.85;;;6.80;68.40;;;;;;5025335;28;20163;-84
2023/12/06 09:45:30;;;;;;;15.60;9.60;;;6.70;68.30;;;;;;5026840;28;20037;-81
2023/12/06 09:47:57;;;;;;;16.88;10.00;;;6.70;68.30;;;;;;5033201;28;20030;-82
2023/12/06 09:50:26;;;;;;;15.75;9.50;;;6.80;68.30;;;;;;5027216;28;20455;-83
2023/12/06 09:52:53;;;;;;;14.50;9.43;;;6.80;68.30;;;;;;5025904;28;20037;-80
2023/12/06 09:55:24;;;;;;;15.52;9.90;;;6.70;68.10;;;;;;5025547;28;20551;-78
2023/12/06 09:57:54;;;;;;;14.88;9.75;;;6.70;68.10;;;;;;5040257;28;20073;-82
2023/12/06 10:00:21;;;;;;;14.38;9.30;;;6.80;68.00;;;;;;5023751;28;20538;-82
2023/12/06 10:02:57;;;;;;;16.45;9.90;;;6.70;68.00;;;;;;5025407;28;20036;-76
2023/12/06 10:05:24;;;;;;;15.25;9.98;;;6.70;68.10;;;;;;5026929;28;20037;-81
2023/12/06 10:07:50;;;;;;;15.57;9.60;;;6.80;68.20;;;;;;5025345;28;20037;-79
2023/12/06 10:10:21;;;;;;;16.58;9.82;;;6.70;68.20;;;;;;5025930;28;20042;-82
2023/12/06 10:12:50;;;;;;;15.32;9.85;;;6.70;68.20;;;;;;5022762;28;20053;-80
2023/12/06 10:15:17;;;;;;;14.85;9.05;;;6.80;68.30;;;;;;5025680;28;20493;-82
2023/12/06 10:17:43;;;;;;;14.75;9.77;;;6.80;68.40;;;;;;5025304;28;20025;-79
2023/12/06 10:20:09;;;;;;;13.43;9.02;;;6.80;68.40;;;;;;5024880;28;20029;-79
2023/12/06 10:22:35;;;;;;;13.77;8.82;;;6.80;68.40;;;;;;5025852;28;20040;-83
2023/12/06 10:25:02;;;;;;;14.95;9.77;;;6.80;68.20;;;;;;5024480;28;20034;-80
2023/12/06 10:27:30;;;;;;;14.38;9.82;;;6.80;68.20;;;;;;5007938;28;20037;-79
2023/12/06 10:29:56;;;;;;;15.10;9.77;;;6.80;68.20;;;;;;5022970;28;20079;-83
2023/12/06 10:32:25;;;;;;;13.35;9.48;;;6.80;68.00;;;;;;5039847;28;20033;-83
2023/12/06 10:34:52;;;;;;;14.77;9.38;;;6.80;68.00;;;;;;5025740;28;20037;-78
2023/12/06 10:37:20;;;;;;;14.05;9.77;;;6.80;67.90;;;;;;5023032;28;20038;-83
2023/12/06 10:39:49;;;;;;;19.00;9.90;;;6.80;68.10;;;;;;5006847;28;20037;-77
2023/12/06 10:42:19;;;;;;;13.27;9.15;;;6.80;68.00;;;;;;5024874;28;20046;-83
2023/12/06 10:44:45;;;;;;;14.02;9.48;;;6.80;68.00;;;;;;5023382;28;20044;-83
2023/12/06 10:47:12;;;;;;;13.07;9.27;;;6.80;67.90;;;;;;5025587;28;20037;-80
2023/12/06 10:49:39;;;;;;;13.55;9.27;;;6.80;68.00;;;;;;5024402;28;20072;-83
2023/12/06 10:52:08;;;;;;;14.57;10.30;;;6.80;68.00;;;;;;5024699;28;20033;-83
2023/12/06 10:54:35;;;;;;;14.30;9.18;;;6.70;67.80;;;;;;5025219;28;20500;-82
2023/12/06 10:57:03;;;;;;;13.38;9.20;;;6.70;67.80;;;;;;5036924;28;20056;-81
2023/12/06 10:59:31;;;;;;;15.32;9.70;;;6.80;68.00;;;;;;5024829;28;20475;-80
2023/12/06 11:01:57;;;;;;;14.50;9.40;;;6.80;67.80;;;;;;5024796;28;20033;-83
2023/12/06 11:04:27;;;;;;;16.35;10.50;;;6.70;67.80;;;;;;5024731;28;20563;-80
2023/12/06 11:07:05;;;;;;;15.75;9.43;;;6.70;67.80;;;;;;5023251;28;20045;-82
2023/12/06 11:10:09;;;;;;;13.18;9.60;;;6.70;67.80;;;;;;5039195;28;20037;-81
2023/12/06 11:12:41;;;;;;;16.58;9.98;;;6.80;68.00;;;;;;5023301;28;20030;-81
2023/12/06 11:15:26;;;;;;;14.52;9.57;;;6.70;67.90;;;;;;5024450;28;20033;-79
2023/12/06 11:18:09;;;;;;;14.20;9.60;;;6.80;68.00;;;;;;5023331;28;20053;-83
2023/12/06 11:20:38;;;;;;;15.57;9.63;;;6.70;68.00;;;;;;5024827;28;20025;-82
2023/12/06 11:23:04;;;;;;;13.63;9.60;;;6.70;68.00;;;;;;5024353;28;20034;-84
2023/12/06 11:25:30;;;;;;;16.15;10.10;;;6.80;68.00;;;;;;5022920;28;20037;-83
2023/12/06 11:27:57;;;;;;;13.38;9.25;;;6.70;68.00;;;;;;5023353;28;20029;-84
2023/12/06 11:30:23;;;;;;;15.85;10.18;;;6.70;67.90;;;;;;5023490;28;20033;-83
2023/12/06 11:32:56;;;;;;;15.00;10.07;;;6.70;67.80;;;;;;5032336;28;20752;-81
2023/12/06 11:35:24;;;;;;;14.38;9.85;;;6.70;67.90;;;;;;5022771;28;20041;-79
2023/12/06 11:37:54;;;;;;;15.10;10.25;;;6.70;67.80;;;;;;4989087;28;20037;-78
2023/12/06 11:40:25;;;;;;;16.65;10.57;;;6.70;67.70;;;;;;5023408;28;20034;-76
2023/12/06 11:43:00;;;;;;;15.32;10.05;;;6.70;67.90;;;;;;5023146;28;20535;-76
2023/12/06 11:45:31;;;;;;;14.00;9.75;;;6.70;68.00;;;;;;5023696;28;20045;-77
2023/12/06 11:48:05;;;;;;;16.13;10.43;;;6.70;68.20;;;;;;5022915;28;20046;-77
2023/12/06 11:50:47;;;;;;;16.33;11.30;;;6.70;68.30;;;;;;5023593;28;20034;-76
2023/12/06 11:53:13;;;;;;;16.83;11.10;;;6.60;68.30;;;;;;5023990;28;20156;-78
2023/12/06 11:55:42;;;;;;;18.92;11.80;;;6.70;68.40;;;;;;5022386;28;20064;-78
2023/12/06 11:58:12;;;;;;;18.90;12.00;;;6.60;68.40;;;;;;5022407;28;20059;-77
2023/12/06 12:00:45;;;;;;;16.63;11.05;;;6.60;68.40;;;;;;5022834;28;20036;-78
2023/12/06 12:03:12;;;;;;;19.90;12.85;;;6.60;68.50;;;;;;5009862;28;20033;-79
2023/12/06 12:05:38;;;;;;;16.85;11.73;;;6.60;68.40;;;;;;5034285;28;20037;-78
2023/12/06 12:08:07;;;;;;;21.30;13.38;;;6.60;69.10;;;;;;5030431;28;20053;-79
2023/12/06 12:10:34;;;;;;;18.17;12.23;;;6.60;68.80;;;;;;5029257;28;20033;-78
2023/12/06 12:13:01;;;;;;;20.90;12.20;;;6.60;68.70;;;;;;5009704;28;20041;-78
2023/12/06 12:15:28;;;;;;;21.42;12.52;;;6.60;68.80;;;;;;5023827;28;20411;-75
2023/12/06 12:17:54;;;;;;;22.00;14.20;;;6.60;68.80;;;;;;5023510;28;20053;-77
2023/12/06 12:20:20;;;;;;;19.30;12.70;;;6.60;68.80;;;;;;5024156;28;20026;-77
2023/12/06 12:22:51;;;;;;;21.42;12.95;;;6.60;68.70;;;;;;5022789;28;20057;-78
2023/12/06 12:25:18;;;;;;;18.35;12.23;;;6.60;68.70;;;;;;5020113;28;20112;-78
2023/12/06 12:27:46;;;;;;;20.98;13.27;;;6.60;68.70;;;;;;5021054;28;20030;-80
2023/12/06 12:30:12;;;;;;;18.42;12.65;;;6.60;68.70;;;;;;5022544;28;20038;-79
2023/12/06 12:32:45;;;;;;;19.25;13.38;;;6.60;68.70;;;;;;5022380;28;20034;-83
2023/12/06 12:35:12;;;;;;;19.60;12.98;;;6.60;68.70;;;;;;5021320;28;20052;-83
2023/12/06 12:37:38;;;;;;;18.10;12.57;;;6.60;68.70;;;;;;5020659;28;20556;-81
2023/12/06 12:40:12;;;;;;;19.05;11.88;;;6.60;69.40;;;;;;5021873;28;20472;-83
2023/12/06 12:42:41;;;;;;;18.20;11.85;;;6.60;69.90;;;;;;5023393;28;20128;-82
2023/12/06 12:45:17;;;;;;;18.85;11.10;;;6.60;70.00;;;;;;5023565;28;21209;-83